Time;durP1;ratioP1;P1;durP2;ratioP2;P2;SDS_P1;SDS_P2;PMS_P1;PMS_P2;Temp;Humidity;BMP_temperature;BMP_pressure;BME280_temperature;BME280_humidity;BME280_pressure;Samples;Min_cycle;Max_cycle;Signal;HPM_P1;HPM_P2
2023/12/12 00:02:01;;;;;;;2.92;1.20;;;6.50;99.90;;;;;;5008796;28;20542;-79
2023/12/12 00:04:26;;;;;;;2.95;1.13;;;6.50;99.90;;;;;;5012157;28;20038;-79
2023/12/12 00:06:52;;;;;;;1.67;1.13;;;6.50;99.90;;;;;;5007450;28;20040;-79
2023/12/12 00:09:17;;;;;;;3.28;1.30;;;6.50;99.90;;;;;;5010058;28;20540;-79
2023/12/12 00:11:43;;;;;;;1.23;0.98;;;6.50;99.90;;;;;;5023179;28;20077;-79
2023/12/12 00:14:08;;;;;;;5.38;1.67;;;6.50;99.90;;;;;;5013921;28;20072;-79
2023/12/12 00:16:34;;;;;;;1.98;1.13;;;6.40;99.90;;;;;;5022127;28;20045;-79
2023/12/12 00:19:00;;;;;;;2.17;0.95;;;6.50;99.90;;;;;;5023599;28;20022;-79
2023/12/12 00:21:26;;;;;;;1.48;0.90;;;6.50;99.90;;;;;;5013170;28;20120;-79
2023/12/12 00:23:51;;;;;;;1.55;1.10;;;6.50;99.90;;;;;;5014088;28;20144;-80
2023/12/12 00:26:17;;;;;;;1.60;1.10;;;6.40;99.90;;;;;;5010061;28;20034;-79
2023/12/12 00:28:42;;;;;;;2.08;1.17;;;6.50;99.90;;;;;;5010967;28;20474;-79
2023/12/12 00:31:08;;;;;;;1.30;1.02;;;6.50;99.90;;;;;;5013367;28;20032;-80
2023/12/12 00:33:33;;;;;;;1.83;1.00;;;6.50;99.90;;;;;;5009761;28;20022;-79
2023/12/12 00:36:03;;;;;;;1.27;0.90;;;6.50;99.90;;;;;;5011466;28;20030;-79
2023/12/12 00:38:29;;;;;;;1.98;0.98;;;6.40;99.90;;;;;;5012836;28;20479;-80
2023/12/12 00:40:55;;;;;;;3.60;1.30;;;6.40;99.90;;;;;;5010282;28;20121;-79
2023/12/12 00:43:22;;;;;;;3.05;1.10;;;6.40;99.90;;;;;;5011884;28;20072;-79
2023/12/12 00:45:48;;;;;;;1.17;0.80;;;6.40;99.90;;;;;;5005436;28;20087;-80
2023/12/12 00:48:13;;;;;;;1.67;0.98;;;6.50;99.90;;;;;;5010757;28;20474;-79
2023/12/12 00:50:39;;;;;;;2.17;1.23;;;6.50;99.90;;;;;;5010317;28;20077;-79
2023/12/12 00:53:04;;;;;;;6.40;1.40;;;6.40;99.90;;;;;;5016236;28;20113;-79
2023/12/12 00:55:30;;;;;;;0.82;0.60;;;6.40;99.90;;;;;;5012842;28;20474;-80
2023/12/12 00:57:55;;;;;;;2.97;1.23;;;6.40;99.90;;;;;;5010628;28;20030;-79
2023/12/12 01:00:21;;;;;;;2.05;1.10;;;6.40;99.90;;;;;;5008616;28;20049;-79
2023/12/12 01:02:46;;;;;;;3.17;1.17;;;6.50;99.90;;;;;;5006683;28;20135;-79
2023/12/12 01:05:12;;;;;;;3.50;1.17;;;6.40;99.90;;;;;;5025874;28;20057;-79
2023/12/12 01:07:37;;;;;;;3.90;1.60;;;6.40;99.90;;;;;;5008546;28;20059;-79
2023/12/12 01:10:04;;;;;;;2.85;1.17;;;6.40;99.90;;;;;;5010354;28;20474;-79
2023/12/12 01:12:30;;;;;;;1.83;1.13;;;6.40;99.90;;;;;;5029568;28;20038;-79
2023/12/12 01:14:58;;;;;;;1.85;0.95;;;6.40;99.90;;;;;;5011386;28;20032;-79
2023/12/12 01:17:25;;;;;;;2.28;1.15;;;6.40;99.90;;;;;;5024348;28;20033;-79
2023/12/12 01:19:51;;;;;;;2.92;1.73;;;6.40;99.90;;;;;;5008309;28;20033;-79
2023/12/12 01:22:16;;;;;;;1.98;1.00;;;6.40;99.90;;;;;;5009838;28;20390;-79
2023/12/12 01:24:42;;;;;;;2.53;1.33;;;6.40;99.90;;;;;;5009011;28;20049;-79
2023/12/12 01:27:08;;;;;;;1.73;1.17;;;6.40;99.90;;;;;;5009811;28;20530;-79
2023/12/12 01:29:37;;;;;;;1.55;1.23;;;6.40;99.90;;;;;;5012525;28;20500;-79
2023/12/12 01:32:03;;;;;;;1.73;0.98;;;6.40;99.90;;;;;;5006030;28;20061;-79
2023/12/12 01:34:29;;;;;;;3.45;1.85;;;6.40;99.90;;;;;;5008721;28;20080;-80
2023/12/12 01:36:54;;;;;;;2.05;0.95;;;6.40;99.90;;;;;;5014605;28;20455;-79
2023/12/12 01:39:20;;;;;;;2.00;1.10;;;6.40;99.90;;;;;;5011656;28;20058;-79
2023/12/12 01:41:47;;;;;;;2.95;1.48;;;6.40;99.90;;;;;;5000538;28;20491;-80
2023/12/12 01:44:12;;;;;;;2.38;1.17;;;6.40;99.90;;;;;;5009441;28;20565;-79
2023/12/12 01:46:38;;;;;;;3.00;1.38;;;6.40;99.90;;;;;;5009530;28;20030;-80
2023/12/12 01:49:03;;;;;;;2.05;1.30;;;6.40;99.90;;;;;;5006831;28;20054;-80
2023/12/12 01:51:30;;;;;;;2.47;1.27;;;6.40;99.90;;;;;;5007318;28;20061;-80
2023/12/12 01:53:56;;;;;;;1.88;1.15;;;6.40;99.90;;;;;;5007384;28;20037;-79
2023/12/12 01:56:22;;;;;;;1.20;0.77;;;6.40;99.90;;;;;;5009381;28;20029;-80
2023/12/12 01:58:50;;;;;;;1.73;1.10;;;6.40;99.90;;;;;;5010070;28;20116;-79
2023/12/12 02:01:16;;;;;;;1.67;0.88;;;6.40;99.90;;;;;;5005668;28;20120;-80
2023/12/12 02:03:43;;;;;;;1.63;0.75;;;6.40;99.90;;;;;;5009439;28;20058;-80
2023/12/12 02:06:11;;;;;;;3.15;1.40;;;6.30;99.90;;;;;;5025321;28;20109;-79
2023/12/12 02:08:37;;;;;;;1.25;0.50;;;6.30;99.90;;;;;;5010172;28;20041;-79
2023/12/12 02:11:03;;;;;;;1.40;0.82;;;6.30;99.90;;;;;;5023054;28;20545;-80
2023/12/12 02:13:28;;;;;;;1.67;0.85;;;6.20;99.90;;;;;;5006695;28;20089;-79
2023/12/12 02:15:54;;;;;;;0.73;0.65;;;6.20;99.90;;;;;;5008988;28;20044;-80
2023/12/12 02:18:19;;;;;;;0.60;0.60;;;6.20;99.90;;;;;;5005762;28;20025;-79
2023/12/12 02:20:45;;;;;;;1.17;0.60;;;6.10;99.90;;;;;;5013781;28;20496;-80
2023/12/12 02:23:10;;;;;;;0.95;0.60;;;6.10;99.90;;;;;;5011953;28;20025;-80
2023/12/12 02:25:37;;;;;;;0.80;0.50;;;6.10;99.90;;;;;;5005349;28;20035;-80
2023/12/12 02:28:03;;;;;;;0.65;0.65;;;6.10;99.90;;;;;;5011301;28;20042;-79
2023/12/12 02:30:32;;;;;;;0.40;0.40;;;6.00;99.90;;;;;;5007726;28;20103;-80
2023/12/12 02:32:58;;;;;;;1.00;0.60;;;6.10;99.90;;;;;;5007085;28;20022;-79
2023/12/12 02:35:24;;;;;;;1.25;0.70;;;6.00;99.90;;;;;;5012245;28;20041;-80
2023/12/12 02:37:49;;;;;;;2.13;1.00;;;6.00;99.90;;;;;;5010344;28;20040;-80
2023/12/12 02:40:15;;;;;;;2.03;0.73;;;6.00;99.90;;;;;;5008401;28;20113;-80
2023/12/12 02:42:44;;;;;;;0.93;0.63;;;6.00;99.90;;;;;;5009840;28;20044;-80
2023/12/12 02:45:10;;;;;;;1.60;0.88;;;6.00;99.90;;;;;;5009869;28;20037;-80
2023/12/12 02:47:36;;;;;;;1.67;0.65;;;6.00;99.90;;;;;;5007699;28;20038;-80
2023/12/12 02:50:01;;;;;;;3.47;1.02;;;6.00;99.90;;;;;;5006497;28;20036;-80
2023/12/12 02:52:27;;;;;;;1.67;0.52;;;6.00;99.90;;;;;;5011140;28;20058;-80
2023/12/12 02:54:52;;;;;;;0.65;0.65;;;6.00;99.90;;;;;;5008879;28;20129;-79
2023/12/12 02:57:17;;;;;;;1.73;0.80;;;6.00;99.90;;;;;;5010928;28;20080;-79
2023/12/12 02:59:43;;;;;;;1.08;0.63;;;6.00;99.90;;;;;;5010091;28;20113;-79
2023/12/12 03:02:08;;;;;;;2.33;1.05;;;6.00;99.90;;;;;;5008386;28;20030;-79
2023/12/12 03:04:34;;;;;;;1.70;0.90;;;6.00;99.90;;;;;;5010121;28;20391;-79
2023/12/12 03:06:59;;;;;;;2.20;0.85;;;6.00;99.90;;;;;;5008764;28;20022;-80
2023/12/12 03:09:25;;;;;;;1.20;0.80;;;5.90;99.90;;;;;;5008320;28;20029;-80
2023/12/12 03:11:52;;;;;;;2.17;1.02;;;5.90;99.90;;;;;;5009327;28;20531;-80
2023/12/12 03:14:18;;;;;;;1.60;0.90;;;6.00;99.90;;;;;;5005676;28;20391;-80
2023/12/12 03:16:44;;;;;;;2.13;0.98;;;5.90;99.90;;;;;;5010178;28;20041;-80
2023/12/12 03:19:09;;;;;;;2.45;0.95;;;5.90;99.90;;;;;;5005503;28;20068;-80
2023/12/12 03:21:35;;;;;;;2.75;1.05;;;5.90;99.90;;;;;;5009384;28;20554;-80
2023/12/12 03:24:00;;;;;;;3.97;1.35;;;5.90;99.90;;;;;;5016184;28;20038;-80
2023/12/12 03:26:26;;;;;;;2.67;1.00;;;5.90;99.90;;;;;;5009869;28;20088;-80
2023/12/12 03:28:51;;;;;;;2.95;1.45;;;5.90;99.90;;;;;;5023429;28;20198;-79
2023/12/12 03:31:17;;;;;;;2.78;1.08;;;5.90;99.90;;;;;;5023785;28;20482;-80
2023/12/12 03:33:42;;;;;;;1.70;0.88;;;5.90;99.90;;;;;;5008810;28;20103;-79
2023/12/12 03:36:08;;;;;;;2.47;0.93;;;5.90;99.90;;;;;;5009835;28;20048;-79
2023/12/12 03:38:33;;;;;;;3.05;1.10;;;5.90;99.90;;;;;;5006708;28;20041;-79
2023/12/12 03:40:59;;;;;;;2.72;1.08;;;5.90;99.90;;;;;;5009296;28;20037;-79
2023/12/12 03:43:24;;;;;;;4.55;1.60;;;5.90;99.90;;;;;;5009455;28;20033;-79
2023/12/12 03:45:50;;;;;;;1.70;0.90;;;5.80;99.90;;;;;;5008913;28;20037;-79
2023/12/12 03:48:16;;;;;;;3.25;1.17;;;5.80;99.90;;;;;;5010442;28;20045;-80
2023/12/12 03:50:41;;;;;;;3.13;1.30;;;5.80;99.90;;;;;;5010230;28;20554;-80
2023/12/12 03:53:07;;;;;;;2.38;1.00;;;5.80;99.90;;;;;;5008011;28;20025;-79
2023/12/12 03:55:32;;;;;;;4.28;1.42;;;5.80;99.90;;;;;;5010307;28;20391;-80
2023/12/12 03:57:57;;;;;;;2.47;1.20;;;5.80;99.90;;;;;;5024729;28;20080;-80
2023/12/12 04:00:23;;;;;;;2.67;1.00;;;5.80;99.90;;;;;;5006918;28;20029;-79
2023/12/12 04:02:48;;;;;;;3.40;1.30;;;5.80;99.90;;;;;;5006980;28;20160;-80
2023/12/12 04:05:14;;;;;;;3.15;1.60;;;5.80;99.90;;;;;;5018547;28;20038;-80
2023/12/12 04:07:39;;;;;;;4.22;1.77;;;5.80;99.90;;;;;;5007491;28;20506;-80
2023/12/12 04:10:07;;;;;;;2.78;1.33;;;5.80;99.90;;;;;;5007050;28;20038;-80
2023/12/12 04:12:36;;;;;;;3.58;1.58;;;5.80;99.90;;;;;;5005712;28;20057;-80
2023/12/12 04:15:02;;;;;;;1.95;1.10;;;5.80;99.90;;;;;;5012749;28;20069;-79
2023/12/12 04:17:29;;;;;;;4.13;1.77;;;5.70;99.90;;;;;;5012552;28;20553;-79
2023/12/12 04:19:54;;;;;;;3.38;1.38;;;5.80;99.90;;;;;;5010332;28;20079;-79
2023/12/12 04:22:20;;;;;;;5.05;1.20;;;5.70;99.90;;;;;;5012529;28;20026;-79
2023/12/12 04:24:45;;;;;;;4.28;1.52;;;5.70;99.90;;;;;;5011353;28;20478;-80
2023/12/12 04:27:11;;;;;;;3.33;1.30;;;5.70;99.90;;;;;;5009221;28;20429;-80
2023/12/12 04:29:37;;;;;;;3.45;1.70;;;5.70;99.90;;;;;;5012303;28;20061;-80
2023/12/12 04:32:03;;;;;;;5.93;1.83;;;5.70;99.90;;;;;;5011302;28;20044;-79
2023/12/12 04:34:32;;;;;;;3.50;1.30;;;5.70;99.90;;;;;;5012059;28;20124;-80
2023/12/12 04:36:59;;;;;;;2.80;1.48;;;5.70;99.90;;;;;;5013519;28;20026;-80
2023/12/12 04:39:26;;;;;;;2.88;1.38;;;5.70;99.90;;;;;;5013587;28;20053;-79
2023/12/12 04:41:51;;;;;;;3.47;1.80;;;5.60;99.90;;;;;;5012436;28;20060;-79
2023/12/12 04:44:17;;;;;;;3.33;1.75;;;5.70;99.90;;;;;;5012451;28;20432;-80
2023/12/12 04:46:42;;;;;;;3.97;1.50;;;5.70;99.90;;;;;;5011070;28;20069;-80
2023/12/12 04:49:08;;;;;;;4.60;1.52;;;5.60;99.90;;;;;;5009631;28;20516;-80
2023/12/12 04:51:33;;;;;;;4.93;1.75;;;5.70;99.90;;;;;;5012014;28;20049;-79
2023/12/12 04:53:59;;;;;;;4.55;1.55;;;5.60;99.90;;;;;;5010548;28;20065;-79
2023/12/12 04:56:24;;;;;;;4.15;1.77;;;5.70;99.90;;;;;;5015053;28;20389;-79
2023/12/12 04:58:49;;;;;;;3.35;1.65;;;5.60;99.90;;;;;;5005835;28;20069;-79
2023/12/12 05:01:16;;;;;;;2.58;1.20;;;5.70;99.90;;;;;;5011549;28;20044;-79
2023/12/12 05:03:41;;;;;;;2.80;1.20;;;5.60;99.90;;;;;;4999501;28;20501;-79
2023/12/12 05:06:09;;;;;;;2.88;1.20;;;5.70;99.90;;;;;;5009925;28;20041;-79
2023/12/12 05:08:35;;;;;;;3.03;1.70;;;5.60;99.90;;;;;;5006563;28;20038;-79
2023/12/12 05:11:00;;;;;;;3.13;1.45;;;5.60;99.90;;;;;;5007339;28;20168;-79
2023/12/12 05:13:26;;;;;;;2.45;1.13;;;5.60;99.90;;;;;;5009010;28;20045;-79
2023/12/12 05:15:52;;;;;;;3.03;1.20;;;5.60;99.90;;;;;;5026201;28;20073;-79
2023/12/12 05:18:17;;;;;;;4.85;1.85;;;5.60;99.90;;;;;;5008865;28;20253;-80
2023/12/12 05:20:43;;;;;;;3.20;1.20;;;5.60;99.90;;;;;;5006221;28;20034;-79
2023/12/12 05:23:09;;;;;;;3.08;0.93;;;5.60;99.90;;;;;;5011198;28;20395;-80
2023/12/12 05:25:35;;;;;;;3.03;1.38;;;5.60;99.90;;;;;;5005935;28;20083;-80
2023/12/12 05:28:01;;;;;;;2.70;1.00;;;5.60;99.90;;;;;;5011801;28;20120;-75
2023/12/12 05:30:26;;;;;;;3.45;1.05;;;5.60;99.90;;;;;;5007941;28;20030;-75
2023/12/12 05:32:52;;;;;;;2.50;1.15;;;5.60;99.90;;;;;;5008617;28;20042;-81
2023/12/12 05:35:17;;;;;;;3.38;1.33;;;5.60;99.90;;;;;;5010298;28;20109;-73
2023/12/12 05:37:43;;;;;;;2.85;1.15;;;5.60;99.90;;;;;;5018047;28;20034;-81
2023/12/12 05:40:09;;;;;;;2.15;1.00;;;5.60;99.90;;;;;;5003716;28;20074;-77
2023/12/12 05:42:35;;;;;;;3.03;1.08;;;5.60;99.90;;;;;;5003179;28;20037;-75
2023/12/12 05:45:00;;;;;;;3.45;1.15;;;5.60;99.90;;;;;;5013220;28;20069;-75
2023/12/12 05:47:26;;;;;;;2.72;1.17;;;5.60;99.90;;;;;;5023008;28;20041;-77
2023/12/12 05:49:51;;;;;;;3.20;1.23;;;5.60;99.90;;;;;;5007029;28;20022;-75
2023/12/12 05:52:17;;;;;;;3.60;1.45;;;5.60;99.90;;;;;;5012015;28;20054;-75
2023/12/12 05:54:42;;;;;;;3.55;1.63;;;5.60;99.90;;;;;;5010630;28;20045;-75
2023/12/12 05:57:08;;;;;;;3.50;1.33;;;5.60;99.90;;;;;;5010735;28;20033;-72
2023/12/12 05:59:34;;;;;;;3.78;1.25;;;5.60;99.90;;;;;;5008814;28;20030;-72
2023/12/12 06:02:00;;;;;;;2.70;1.40;;;5.60;99.90;;;;;;5010610;28;20105;-72
2023/12/12 06:04:27;;;;;;;3.47;1.50;;;5.60;99.90;;;;;;5009479;28;20038;-76
2023/12/12 06:06:52;;;;;;;3.38;1.20;;;5.60;99.90;;;;;;5010146;28;20029;-75
2023/12/12 06:09:18;;;;;;;3.42;1.42;;;5.60;99.90;;;;;;5004876;28;20048;-75
2023/12/12 06:11:43;;;;;;;2.47;1.02;;;5.60;99.90;;;;;;5009711;28;20041;-76
2023/12/12 06:14:09;;;;;;;3.50;1.20;;;5.50;99.90;;;;;;5009067;28;20724;-75
2023/12/12 06:16:35;;;;;;;1.77;0.95;;;5.60;99.90;;;;;;5010424;28;20030;-76
2023/12/12 06:19:04;;;;;;;2.65;1.23;;;5.60;99.90;;;;;;5008157;28;20195;-75
2023/12/12 06:21:32;;;;;;;2.50;1.00;;;5.60;99.90;;;;;;5011406;28;20117;-75
2023/12/12 06:23:58;;;;;;;2.88;1.20;;;5.50;99.90;;;;;;5009171;28;20437;-75
2023/12/12 06:26:26;;;;;;;2.33;0.90;;;5.60;99.90;;;;;;5012083;28;20030;-77
2023/12/12 06:28:52;;;;;;;3.15;1.10;;;5.60;99.90;;;;;;5008387;28;20037;-75
2023/12/12 06:31:17;;;;;;;2.03;1.13;;;5.50;99.90;;;;;;5008407;28;20029;-75
2023/12/12 06:33:43;;;;;;;2.72;1.17;;;5.50;99.90;;;;;;5023884;28;20037;-76
2023/12/12 06:36:09;;;;;;;1.75;0.90;;;5.50;99.90;;;;;;5012936;28;20490;-75
2023/12/12 06:38:35;;;;;;;2.42;1.00;;;5.50;99.90;;;;;;5011512;28;20032;-76
2023/12/12 06:41:00;;;;;;;3.17;1.27;;;5.50;99.90;;;;;;5006894;28;20243;-74
2023/12/12 06:43:26;;;;;;;2.30;1.00;;;5.50;99.90;;;;;;5009683;28;20054;-79
2023/12/12 06:45:51;;;;;;;2.28;1.20;;;5.50;99.90;;;;;;5000610;28;20060;-76
2023/12/12 06:48:18;;;;;;;3.17;1.17;;;5.50;99.90;;;;;;5011544;28;20070;-77
2023/12/12 06:50:43;;;;;;;1.48;0.82;;;5.50;99.90;;;;;;5010908;28;20069;-75
2023/12/12 06:53:09;;;;;;;2.35;1.02;;;5.60;99.90;;;;;;5008067;28;20034;-76
2023/12/12 06:55:34;;;;;;;2.65;1.15;;;5.60;99.90;;;;;;5007454;28;20037;-76
2023/12/12 06:58:00;;;;;;;3.58;1.33;;;5.50;99.90;;;;;;5008752;28;20026;-82
2023/12/12 07:00:25;;;;;;;2.50;1.30;;;5.60;99.90;;;;;;5011891;28;20042;-75
2023/12/12 07:02:51;;;;;;;4.25;0.98;;;5.60;99.90;;;;;;5012177;28;20122;-73
2023/12/12 07:05:16;;;;;;;4.28;1.58;;;5.60;99.90;;;;;;5011094;28;20378;-73
2023/12/12 07:07:43;;;;;;;2.72;0.88;;;5.60;99.90;;;;;;5009450;28;20068;-75
2023/12/12 07:10:09;;;;;;;2.40;1.30;;;5.60;99.90;;;;;;5012480;28;20033;-76
2023/12/12 07:12:34;;;;;;;3.67;1.52;;;5.60;99.90;;;;;;5021629;28;20466;-76
2023/12/12 07:15:00;;;;;;;2.78;1.40;;;5.60;99.90;;;;;;5007979;28;20029;-75
2023/12/12 07:17:25;;;;;;;2.75;1.23;;;5.60;99.90;;;;;;5011479;28;20617;-76
2023/12/12 07:19:51;;;;;;;2.25;0.95;;;5.60;99.90;;;;;;5011101;28;20041;-75
2023/12/12 07:22:16;;;;;;;2.65;0.95;;;5.60;99.90;;;;;;5008348;28;20467;-75
2023/12/12 07:24:42;;;;;;;2.80;1.15;;;5.60;99.90;;;;;;5011308;28;20057;-77
2023/12/12 07:27:07;;;;;;;3.53;1.27;;;5.60;99.90;;;;;;5007349;28;20030;-74
2023/12/12 07:29:33;;;;;;;2.80;1.30;;;5.60;99.90;;;;;;5007180;28;20459;-74
2023/12/12 07:31:59;;;;;;;2.95;1.45;;;5.60;99.90;;;;;;5011531;28;20141;-74
2023/12/12 07:34:25;;;;;;;2.97;1.27;;;5.60;99.90;;;;;;5011331;28;20033;-74
2023/12/12 07:36:50;;;;;;;2.97;1.35;;;5.60;99.90;;;;;;5012526;28;20037;-74
2023/12/12 07:39:15;;;;;;;5.53;1.60;;;5.60;99.90;;;;;;5003605;28;20031;-75
2023/12/12 07:41:41;;;;;;;4.35;1.58;;;5.60;99.90;;;;;;5007378;28;20038;-75
2023/12/12 07:44:06;;;;;;;3.05;1.50;;;5.60;99.90;;;;;;5008344;28;20052;-76
2023/12/12 07:46:39;;;;;;;3.13;1.60;;;5.60;99.90;;;;;;5001810;28;20501;-73
2023/12/12 07:49:08;;;;;;;3.83;1.73;;;5.60;99.90;;;;;;5003671;28;20489;-74
2023/12/12 07:51:33;;;;;;;4.97;2.03;;;5.60;99.90;;;;;;5013502;28;20046;-77
2023/12/12 07:54:04;;;;;;;4.70;2.30;;;5.60;99.90;;;;;;5010259;28;20109;-74
2023/12/12 07:56:29;;;;;;;5.60;2.92;;;5.60;99.90;;;;;;5008754;28;20054;-81
2023/12/12 07:58:55;;;;;;;4.07;1.95;;;5.60;99.90;;;;;;5012420;28;20123;-79
2023/12/12 08:01:21;;;;;;;5.43;2.55;;;5.60;99.90;;;;;;5010521;28;20022;-72
2023/12/12 08:03:46;;;;;;;5.10;2.45;;;5.60;99.90;;;;;;5002893;28;20205;-72
2023/12/12 08:06:12;;;;;;;6.00;2.30;;;5.60;99.90;;;;;;5005455;28;20089;-77
2023/12/12 08:08:37;;;;;;;5.43;2.47;;;5.60;99.90;;;;;;5016400;28;20074;-77
2023/12/12 08:11:03;;;;;;;5.43;2.45;;;5.60;99.90;;;;;;5001634;28;20455;-75
2023/12/12 08:13:30;;;;;;;5.20;2.47;;;5.60;99.90;;;;;;5011226;28;20501;-73
2023/12/12 08:15:55;;;;;;;6.28;2.22;;;5.60;99.90;;;;;;5010738;28;20518;-73
2023/12/12 08:18:21;;;;;;;5.88;2.63;;;5.60;99.90;;;;;;5011893;28;20033;-74
2023/12/12 08:20:47;;;;;;;4.25;2.45;;;5.60;99.90;;;;;;5005960;28;20343;-79
2023/12/12 08:23:13;;;;;;;6.32;2.90;;;5.60;99.90;;;;;;5011586;28;20030;-78
2023/12/12 08:25:38;;;;;;;6.43;2.50;;;5.50;99.90;;;;;;5013075;28;20044;-76
2023/12/12 08:28:04;;;;;;;6.97;3.03;;;5.50;99.90;;;;;;5007974;28;20387;-79
2023/12/12 08:30:30;;;;;;;4.70;2.63;;;5.60;99.90;;;;;;5011392;28;20037;-74
2023/12/12 08:32:55;;;;;;;5.05;2.35;;;5.50;99.90;;;;;;5008257;28;20372;-79
2023/12/12 08:35:21;;;;;;;4.93;2.72;;;5.50;99.90;;;;;;5009932;28;20032;-82
2023/12/12 08:37:47;;;;;;;3.85;2.35;;;5.60;99.90;;;;;;5011234;28;20041;-79
2023/12/12 08:40:13;;;;;;;3.47;1.75;;;5.60;99.90;;;;;;5011489;28;20112;-76
2023/12/12 08:42:39;;;;;;;4.68;2.00;;;5.60;99.90;;;;;;5011653;28;20120;-78
2023/12/12 08:45:05;;;;;;;4.63;2.00;;;5.60;99.90;;;;;;5010811;28;20034;-80
2023/12/12 08:47:31;;;;;;;4.18;2.25;;;5.60;99.90;;;;;;5010064;28;20037;-80
2023/12/12 08:49:56;;;;;;;5.35;2.30;;;5.50;99.90;;;;;;5009251;28;20044;-76
2023/12/12 08:52:22;;;;;;;3.70;1.88;;;5.50;99.90;;;;;;5005073;28;20062;-77
2023/12/12 08:54:47;;;;;;;5.70;3.30;;;5.50;99.90;;;;;;5011413;28;20071;-72
2023/12/12 08:57:15;;;;;;;5.50;2.83;;;5.50;99.90;;;;;;5009263;28;20030;-77
2023/12/12 08:59:40;;;;;;;5.03;2.33;;;5.60;99.90;;;;;;5009085;28;20422;-79
2023/12/12 09:02:06;;;;;;;3.95;1.80;;;5.60;99.90;;;;;;5007962;28;20030;-77
2023/12/12 09:04:32;;;;;;;8.73;3.28;;;5.60;99.90;;;;;;5006273;28;20038;-76
2023/12/12 09:06:58;;;;;;;7.32;3.58;;;5.60;99.90;;;;;;5009883;28;20037;-77
2023/12/12 09:09:25;;;;;;;7.60;2.88;;;5.60;99.90;;;;;;5013957;28;20092;-76
2023/12/12 09:11:51;;;;;;;7.22;3.47;;;5.60;99.90;;;;;;5010369;28;20026;-76
2023/12/12 09:14:16;;;;;;;7.57;3.55;;;5.60;99.90;;;;;;5012364;28;20116;-76
2023/12/12 09:16:42;;;;;;;7.20;3.60;;;5.50;99.90;;;;;;5012648;28;20034;-76
2023/12/12 09:19:09;;;;;;;9.10;4.75;;;5.50;99.90;;;;;;5004790;28;20042;-76
2023/12/12 09:21:35;;;;;;;11.07;5.70;;;5.50;99.90;;;;;;5010409;28;20116;-76
2023/12/12 09:24:00;;;;;;;27.63;13.60;;;5.60;99.90;;;;;;5030187;28;20124;-75
2023/12/12 09:26:26;;;;;;;13.55;7.22;;;5.60;99.90;;;;;;5011158;28;20034;-77
2023/12/12 09:28:51;;;;;;;9.07;4.85;;;5.60;99.90;;;;;;5010773;28;20042;-80
2023/12/12 09:31:27;;;;;;;7.88;3.78;;;5.60;99.90;;;;;;5011939;28;20490;-77
2023/12/12 09:33:54;;;;;;;8.75;4.43;;;5.60;99.90;;;;;;4999645;28;20030;-75
2023/12/12 09:36:19;;;;;;;9.20;4.90;;;5.50;99.90;;;;;;5004478;28;20091;-76
2023/12/12 09:38:45;;;;;;;9.52;4.47;;;5.50;99.90;;;;;;5005224;28;20038;-73
2023/12/12 09:41:21;;;;;;;8.95;5.15;;;5.50;99.90;;;;;;5005387;28;20378;-73
2023/12/12 09:43:48;;;;;;;9.32;4.82;;;5.50;99.90;;;;;;5014872;28;20061;-80
2023/12/12 09:46:15;;;;;;;13.80;7.53;;;5.60;99.90;;;;;;5008144;28;20121;-79
2023/12/12 09:48:43;;;;;;;13.65;7.32;;;5.60;99.90;;;;;;5009247;28;20512;-79
2023/12/12 09:51:12;;;;;;;23.50;12.30;;;5.50;99.90;;;;;;5005059;28;20506;-78
2023/12/12 09:53:46;;;;;;;10.10;5.85;;;5.60;99.90;;;;;;5009292;28;20030;-74
2023/12/12 09:56:14;;;;;;;9.15;4.78;;;5.60;99.90;;;;;;5009995;28;20172;-73
2023/12/12 09:58:40;;;;;;;8.55;4.78;;;5.60;99.90;;;;;;5012132;28;20054;-73
2023/12/12 10:01:08;;;;;;;7.25;4.55;;;5.60;99.90;;;;;;5014061;28;20068;-75
2023/12/12 10:03:34;;;;;;;8.70;4.80;;;5.70;99.90;;;;;;5007107;28;20065;-74
2023/12/12 10:06:05;;;;;;;6.82;4.32;;;5.60;99.90;;;;;;5012406;28;20355;-77
2023/12/12 10:08:31;;;;;;;7.15;4.18;;;5.70;99.90;;;;;;5007746;28;20088;-77
2023/12/12 10:10:56;;;;;;;9.43;4.88;;;5.70;99.90;;;;;;5004388;28;20042;-77
2023/12/12 10:13:22;;;;;;;8.02;4.47;;;5.80;99.90;;;;;;5010405;28;20042;-77
2023/12/12 10:15:48;;;;;;;8.65;4.53;;;5.80;99.90;;;;;;5007687;28;20532;-74
2023/12/12 10:18:14;;;;;;;7.95;4.05;;;5.70;99.90;;;;;;5006735;28;20045;-75
2023/12/12 10:20:39;;;;;;;7.70;3.67;;;5.70;99.90;;;;;;5012167;28;20025;-75
2023/12/12 10:23:05;;;;;;;7.68;4.13;;;5.70;99.90;;;;;;5004662;28;20087;-74
2023/12/12 10:25:33;;;;;;;7.28;3.85;;;5.80;99.90;;;;;;5007854;28;20048;-74
2023/12/12 10:27:58;;;;;;;8.00;3.22;;;5.80;99.90;;;;;;5007828;28;20376;-74
2023/12/12 10:30:26;;;;;;;6.78;3.42;;;5.90;99.90;;;;;;5007639;28;20109;-81
2023/12/12 10:32:52;;;;;;;6.32;3.40;;;6.10;99.90;;;;;;5003355;28;20365;-76
2023/12/12 10:35:21;;;;;;;8.32;4.15;;;6.10;99.90;;;;;;5008739;28;20026;-74
2023/12/12 10:37:47;;;;;;;9.88;4.72;;;6.00;99.90;;;;;;5008535;28;20056;-74
2023/12/12 10:40:14;;;;;;;8.50;4.28;;;6.00;99.90;;;;;;5007655;28;20483;-76
2023/12/12 10:42:40;;;;;;;7.35;3.92;;;6.00;99.90;;;;;;5012290;28;20038;-74
2023/12/12 10:45:09;;;;;;;7.45;3.47;;;6.00;99.90;;;;;;5010820;28;20033;-75
2023/12/12 10:47:48;;;;;;;6.50;3.63;;;6.10;99.90;;;;;;5024686;28;20029;-77
2023/12/12 10:50:16;;;;;;;6.80;3.70;;;6.10;99.90;;;;;;5015605;28;20052;-74
2023/12/12 10:52:44;;;;;;;7.07;3.50;;;6.10;99.90;;;;;;5014296;28;20042;-77
2023/12/12 10:55:11;;;;;;;6.68;3.80;;;6.20;99.90;;;;;;5006514;28;20036;-79
2023/12/12 10:57:38;;;;;;;6.50;3.13;;;6.10;99.90;;;;;;5015926;28;20029;-77
2023/12/12 11:00:11;;;;;;;5.90;2.95;;;6.10;99.90;;;;;;5018632;28;20518;-76
2023/12/12 11:02:40;;;;;;;6.60;3.25;;;6.10;99.90;;;;;;5007876;28;20068;-78
2023/12/12 11:05:11;;;;;;;5.97;3.25;;;6.10;99.90;;;;;;5010061;28;20030;-77
2023/12/12 11:07:38;;;;;;;9.82;3.95;;;6.30;99.90;;;;;;5008801;28;20387;-77
2023/12/12 11:10:13;;;;;;;5.97;3.05;;;6.40;99.90;;;;;;5010941;28;20108;-77
2023/12/12 11:12:48;;;;;;;9.00;3.72;;;6.40;99.90;;;;;;5002842;28;20197;-77
2023/12/12 11:15:15;;;;;;;6.43;3.53;;;6.40;99.90;;;;;;5012268;28;20030;-78
2023/12/12 11:17:41;;;;;;;7.07;3.40;;;6.50;99.90;;;;;;5013185;28;20025;-81
2023/12/12 11:20:18;;;;;;;6.72;3.53;;;6.40;99.90;;;;;;5008598;28;20056;-78
2023/12/12 11:22:46;;;;;;;6.03;3.33;;;6.50;99.90;;;;;;5008974;28;20030;-77
2023/12/12 11:25:20;;;;;;;6.63;3.33;;;6.40;99.90;;;;;;5012744;28;20029;-79
2023/12/12 11:27:49;;;;;;;6.07;2.58;;;6.50;99.90;;;;;;5005874;28;20467;-78
2023/12/12 11:30:18;;;;;;;5.88;3.00;;;6.40;99.90;;;;;;5018599;28;20046;-78
2023/12/12 11:32:44;;;;;;;5.97;2.90;;;6.40;99.90;;;;;;5016326;28;20133;-82
2023/12/12 11:35:28;;;;;;;5.03;2.63;;;6.50;99.90;;;;;;5014465;28;20040;-78
2023/12/12 11:37:54;;;;;;;4.75;2.50;;;6.60;99.90;;;;;;5015462;28;20029;-79
2023/12/12 11:40:22;;;;;;;4.80;2.63;;;6.40;99.90;;;;;;5013395;28;20022;-79
2023/12/12 11:42:49;;;;;;;5.07;3.00;;;6.50;99.90;;;;;;5013777;28;20033;-77
2023/12/12 11:45:33;;;;;;;4.18;2.78;;;6.40;99.90;;;;;;5018973;28;20486;-77
2023/12/12 11:48:06;;;;;;;7.50;3.08;;;6.30;99.90;;;;;;5015313;28;20044;-77
2023/12/12 11:50:33;;;;;;;4.95;2.78;;;6.30;99.90;;;;;;5016123;28;20029;-77
2023/12/12 11:52:58;;;;;;;5.55;2.72;;;6.30;99.90;;;;;;5022442;28;20030;-77
2023/12/12 11:55:29;;;;;;;5.25;2.90;;;6.30;99.90;;;;;;5016711;28;20109;-77
2023/12/12 11:58:07;;;;;;;6.07;3.17;;;6.40;99.90;;;;;;5031124;28;20514;-77
2023/12/12 12:00:37;;;;;;;6.25;3.22;;;6.40;99.90;;;;;;5018669;28;20759;-78
2023/12/12 12:03:04;;;;;;;5.80;3.05;;;6.40;99.90;;;;;;5013939;28;20036;-79
2023/12/12 12:05:30;;;;;;;7.28;3.22;;;6.40;99.90;;;;;;5011797;28;20042;-74
2023/12/12 12:07:56;;;;;;;7.47;2.90;;;6.30;99.90;;;;;;5008395;28;20482;-76
2023/12/12 12:10:24;;;;;;;5.82;2.95;;;6.40;99.90;;;;;;5012529;28;20128;-76
2023/12/12 12:12:57;;;;;;;6.50;2.90;;;6.40;99.90;;;;;;5024135;28;20034;-72
2023/12/12 12:15:23;;;;;;;8.13;3.08;;;6.50;99.90;;;;;;5012170;28;20030;-73
2023/12/12 12:17:49;;;;;;;4.97;2.65;;;6.50;99.90;;;;;;5012528;28;20038;-74
2023/12/12 12:20:14;;;;;;;5.50;3.33;;;6.60;99.90;;;;;;5010366;28;20375;-75
2023/12/12 12:22:40;;;;;;;9.50;3.22;;;6.50;99.90;;;;;;5012698;28;20034;-73
2023/12/12 12:25:07;;;;;;;6.40;3.38;;;6.50;99.90;;;;;;5012539;28;20045;-73
2023/12/12 12:27:46;;;;;;;6.97;2.85;;;6.50;99.90;;;;;;5029088;28;20038;-77
2023/12/12 12:30:11;;;;;;;5.18;2.90;;;6.50;99.90;;;;;;5011238;28;20061;-75
2023/12/12 12:32:37;;;;;;;5.32;2.63;;;6.50;99.90;;;;;;5014180;28;20106;-82
2023/12/12 12:35:09;;;;;;;6.57;3.00;;;6.60;99.90;;;;;;5009522;28;20364;-82
2023/12/12 12:37:36;;;;;;;5.38;2.83;;;6.60;99.90;;;;;;5007794;28;20037;-78
2023/12/12 12:40:04;;;;;;;5.10;2.63;;;6.60;99.90;;;;;;5009679;28;20042;-78
2023/12/12 12:42:34;;;;;;;4.32;2.25;;;6.60;99.90;;;;;;5014711;28;20033;-78
2023/12/12 12:45:04;;;;;;;6.63;2.92;;;6.60;99.90;;;;;;5013691;28;20107;-77
2023/12/12 12:47:30;;;;;;;6.25;2.97;;;6.60;99.90;;;;;;5010378;28;20033;-81
2023/12/12 12:49:55;;;;;;;5.40;2.97;;;6.50;99.90;;;;;;5022132;28;20034;-78
2023/12/12 12:52:21;;;;;;;7.22;3.22;;;6.60;99.90;;;;;;5009201;28;20092;-78
2023/12/12 12:54:47;;;;;;;6.82;3.45;;;6.50;99.90;;;;;;5014969;28;20752;-78